Latest Weather Observations for Portland Airport

IDV60801

Issued at 11:05 am EDT Tuesday 21 October 2014 (issued every 30 minutes, with the page automatically refreshed every 10 minutes)

About weather observations | Map of weather stations | Latest weather observations for VIC | Other Formats
Station Details ID: 090171 Name: CASHMORE AIRPORT Lat: -38.31 Lon: 141.47 Height: 80.9 m
Data from the previous 72 hours. | See also: Recent months at Portland Airport
Date/Time
EDT
Temp
°C
App
Temp
°C
Dew
Point
Rel
Hum
%
Delta-T
°C
Wind Press
QNH
hPa
Press
MSL
hPa
Rain
since 9 am
mm
Dir
 
Spd
km/h
Gust
km/h
Spd
kts
Gust
kts
21/11:00am 13.5 11.0 9.6 77 2.0 E 13 19 7 10 1025.0 1025.1 0.0
21/10:30am 13.7 11.2 9.7 77 2.1 E 13 20 7 11 1025.2 1025.2 0.0
21/10:00am 12.8 10.1 8.9 77 2.0 E 13 20 7 11 1024.9 1025.0 0.0
21/09:30am 11.8 8.5 8.1 78 1.8 ENE 15 20 8 11 1025.0 1025.1 0.0
21/09:00am 11.2 8.3 8.2 82 1.5 ENE 13 22 7 12 1025.3 1025.3 0.0
21/08:30am 10.3 6.2 7.9 85 1.2 ENE 19 30 10 16 1025.2 1025.2 0.0
21/08:00am 9.8 5.1 7.6 86 1.0 E 22 33 12 18 1024.9 1025.0 0.0
21/07:30am 9.1 4.7 7.4 89 0.8 E 20 32 11 17 1024.7 1024.8 0.0
21/07:00am 8.8 3.9 7.1 89 0.8 ENE 22 37 12 20 1024.7 1024.8 0.0
21/06:30am 8.7 4.2 7.0 89 0.8 ENE 20 30 11 16 1024.5 1024.6 0.0
21/06:00am 8.7 3.8 7.0 89 0.8 ENE 22 37 12 20 1024.3 1024.4 0.0
21/05:30am 8.7 4.3 7.2 90 0.7 ENE 20 33 11 18 1024.5 1024.6 0.0
21/05:00am 8.7 4.4 7.2 90 0.7 ENE 19 33 10 18 1024.7 1024.8 0.0
21/04:30am 8.8 4.9 7.3 90 0.7 ENE 17 28 9 15 1024.9 1025.0 0.0
21/04:00am 8.9 4.7 7.4 90 0.7 ENE 19 26 10 14 1025.0 1025.1 0.0
21/03:30am 9.1 4.7 7.5 90 0.8 ENE 20 32 11 17 1025.4 1025.4 0.0
21/03:00am 9.3 5.5 7.6 89 0.8 ENE 17 24 9 13 1025.5 1025.5 0.0
21/02:30am 10.1 6.1 8.2 88 0.9 ENE 19 28 10 15 1025.7 1025.7 0.0
21/02:00am 10.5 6.5 8.3 86 1.1 ENE 19 32 10 17 1026.1 1026.1 0.0
21/01:30am 10.6 6.6 8.4 86 1.1 ENE 19 32 10 17 1026.4 1026.4 0.0
21/01:00am 10.8 6.6 8.2 84 1.3 E 20 35 11 19 1026.9 1026.9 0.0
21/12:30am 10.8 6.2 8.0 83 1.4 E 22 35 12 19 1027.2 1027.2 0.0
21/12:00am 10.6 6.5 7.8 83 1.3 E 19 32 10 17 1027.4 1027.4 0.0
 
Date/Time
EDT
Temp
°C
App
Temp
°C
Dew
Point
Rel
Hum
%
Delta-T
°C
Wind Press
QNH
hPa
Press
MSL
hPa
Rain
since 9 am
mm
Dir
 
Spd
km/h
Gust
km/h
Spd
kts
Gust
kts
20/11:30pm 10.5 6.8 7.9 84 1.3 ENE 17 28 9 15 1027.6 1027.6 0.0
20/11:00pm 10.8 6.5 7.7 81 1.5 ENE 20 32 11 17 1027.7 1027.7 0.0
20/10:30pm 11.2 6.8 7.5 78 1.8 E 20 28 11 15 1027.8 1027.8 0.0
20/10:00pm 11.9 7.4 8.4 79 1.7 E 22 33 12 18 1027.8 1027.8 0.0
20/09:30pm 12.1 8.3 9.7 85 1.2 E 20 33 11 18 1027.6 1027.6 0.0
20/09:00pm 11.9 7.1 8.9 82 1.5 E 24 39 13 21 1027.4 1027.4 0.0
20/08:30pm 11.8 7.0 8.8 82 1.5 E 24 33 13 18 1027.2 1027.2 0.0
20/08:00pm 11.8 6.9 8.5 80 1.6 E 24 39 13 21 1027.2 1027.2 0.0
20/07:30pm 12.2 7.2 8.1 76 2.0 E 24 39 13 21 1027.1 1027.1 0.0
20/07:00pm 12.8 7.4 8.1 73 2.3 E 26 39 14 21 1027.2 1027.2 0.0
20/06:30pm 13.3 8.5 7.5 68 2.8 E 22 33 12 18 1027.6 1027.6 0.0
20/06:00pm 13.3 7.6 6.6 64 3.2 E 26 39 14 21 1027.8 1027.8 0.0
20/05:30pm 13.5 8.3 7.1 65 3.1 ESE 24 39 13 21 1028.1 1028.1 0.0
20/05:00pm 13.9 8.6 7.0 63 3.3 ESE 24 37 13 20 1028.2 1028.2 0.0
20/04:30pm 14.0 8.7 6.8 62 3.5 ESE 24 41 13 22 1028.6 1028.6 0.0
20/04:00pm 14.2 9.4 7.3 63 3.4 ESE 22 39 12 21 1028.8 1028.8 0.0
20/03:30pm 14.7 9.6 7.5 62 3.6 ESE 24 41 13 22 1029.0 1029.0 0.0
20/03:00pm 14.2 8.1 6.8 61 3.6 ESE 28 41 15 22 1029.1 1029.1 0.0
20/02:30pm 15.1 9.8 8.6 65 3.3 ESE 26 43 14 23 1029.2 1029.2 0.0
20/02:00pm 14.1 8.4 6.7 61 3.6 ESE 26 39 14 21 1029.4 1029.4 0.0
20/01:30pm 14.2 8.3 7.3 63 3.4 E 28 41 15 22 1029.7 1029.7 0.0
20/01:00pm 14.2 8.6 7.3 63 3.4 E 26 43 14 23 1030.1 1030.1 0.0
20/12:30pm 13.9 7.8 6.7 62 3.5 E 28 41 15 22 1030.5 1030.5 0.0
20/12:12pm 13.8 7.4 6.9 63 3.4 E 30 48 16 26 1030.4 1030.4 0.0
20/12:00pm 13.4 6.5 6.3 62 3.4 E 32 46 17 25 1030.5 1030.5 0.0
20/11:30am 13.8 7.8 6.9 63 3.4 E 28 46 15 25 1031.0 1031.0 0.0
20/11:14am 13.3 6.7 5.9 61 3.5 E 30 50 16 27 1030.9 1030.9 0.0
20/11:00am 13.4 6.4 6.0 61 3.5 E 32 46 17 25 1031.0 1031.0 0.0
20/10:36am 13.2 6.8 5.4 59 3.7 E 28 46 15 25 1030.9 1030.9 0.0
20/10:30am 13.5 7.3 6.1 61 3.5 E 28 44 15 24 1031.0 1031.0 0.0
20/10:00am 12.8 6.5 5.5 61 3.4 E 28 50 15 27 1030.8 1030.8 0.0
20/09:56am 12.6 5.7 4.8 59 3.6 E 30 50 16 27 1030.8 1030.8 0.0
20/09:30am 12.3 6.4 5.7 64 3.1 ESE 26 43 14 23 1030.6 1030.6 0.0
20/09:00am 11.7 5.5 4.4 61 3.3 ESE 26 43 14 23 1031.0 1031.0 0.2
20/08:30am 11.3 5.5 4.5 63 3.1 ESE 24 37 13 20 1030.6 1030.6 0.2
20/08:00am 11.0 5.2 4.2 63 3.0 ESE 24 39 13 21 1030.1 1030.1 0.2
20/07:30am 10.4 5.7 5.0 69 2.5 ESE 19 35 10 19 1029.8 1029.8 0.2
20/07:00am 9.5 4.9 3.5 66 2.6 ESE 17 30 9 16 1029.6 1029.6 0.2
20/06:30am 9.3 4.6 3.1 65 2.7 ESE 17 32 9 17 1029.2 1029.2 0.2
20/06:00am 9.7 4.8 4.1 68 2.5 ESE 19 30 10 16 1029.4 1029.4 0.2
20/05:30am 10.0 4.9 4.2 67 2.6 ESE 20 35 11 19 1029.2 1029.2 0.2
20/05:00am 10.2 5.2 4.8 69 2.4 ESE 20 32 11 17 1028.7 1028.7 0.2
20/04:30am 9.6 4.4 3.8 67 2.5 ESE 20 28 11 15 1028.7 1028.7 0.2
20/04:00am 9.4 4.9 4.2 70 2.3 ESE 17 28 9 15 1028.6 1028.6 0.2
20/03:30am 9.5 4.6 4.3 70 2.3 SE 19 26 10 14 1028.9 1028.9 0.2
20/03:00am 9.7 4.3 4.5 70 2.3 SE 22 32 12 17 1028.7 1028.7 0.2
20/02:30am 10.1 5.5 5.7 74 2.0 ESE 19 26 10 14 1029.0 1029.0 0.2
20/02:00am 10.7 5.7 6.5 75 2.0 SE 22 30 12 16 1029.2 1029.2 0.2
20/01:30am 10.2 5.8 6.4 77 1.8 ESE 19 26 10 14 1029.5 1029.5 0.2
20/01:00am 11.0 5.8 7.3 78 1.8 SE 24 33 13 18 1029.4 1029.4 0.2
20/12:30am 10.8 6.6 7.5 80 1.6 SE 19 28 10 15 1029.6 1029.6 0.2
20/12:00am 11.0 6.7 7.1 77 1.9 SE 19 26 10 14 1029.5 1029.5 0.2
 
Date/Time
EDT
Temp
°C
App
Temp
°C
Dew
Point
Rel
Hum
%
Delta-T
°C
Wind Press
QNH
hPa
Press
MSL
hPa
Rain
since 9 am
mm
Dir
 
Spd
km/h
Gust
km/h
Spd
kts
Gust
kts
19/11:30pm 10.8 7.0 7.7 81 1.5 SE 17 24 9 13 1029.5 1029.5 0.2
19/11:00pm 10.8 6.8 8.2 84 1.3 SE 19 26 10 14 1029.4 1029.4 0.2
19/10:30pm 10.6 6.8 9.0 90 0.8 SE 19 30 10 16 1029.2 1029.2 0.2
19/10:14pm 10.6 6.8 9.7 94 0.5 SE 20 26 11 14 1028.9 1028.9 0.2
19/10:06pm 10.4 6.5 9.6 95 0.4 SE 20 30 11 16 1028.9 1028.9 0.2
19/10:00pm 10.4 6.2 9.6 95 0.4 SE 22 30 12 16 1028.9 1028.9 0.2
19/09:30pm 11.0 7.4 9.9 93 0.6 SSE 19 28 10 15 1028.9 1028.9 0.0
19/09:20pm 11.3 7.5 9.7 90 0.8 SE 20 30 11 16 1028.9 1028.9 0.0
19/09:00pm 11.7 7.6 8.7 82 1.5 SE 20 26 11 14 1028.2 1028.2 0.0
19/08:30pm 11.8 7.7 8.6 81 1.6 SE 20 30 11 16 1028.0 1028.0 0.0
19/08:22pm 11.7 7.8 8.6 81 1.5 SSE 19 26 10 14 1027.8 1027.8 0.0
19/08:00pm 11.6 8.2 9.0 84 1.3 SSE 17 24 9 13 1027.8 1027.8 0.0
19/07:30pm 11.7 8.0 9.6 87 1.1 SSE 19 35 10 19 1027.2 1027.2 0.0
19/07:00pm 12.5 8.9 9.9 84 1.3 S 19 32 10 17 1026.6 1026.6 0.0
19/06:30pm 12.9 8.8 10.1 83 1.4 S 22 35 12 19 1025.7 1025.7 0.0
19/06:00pm 13.4 9.9 10.8 84 1.4 S 20 30 11 16 1025.2 1025.2 0.0
19/05:54pm 13.5 9.6 10.9 84 1.4 S 22 33 12 18 1024.7 1024.8 0.0
19/05:33pm 13.9 10.4 10.3 79 1.9 S 19 30 10 16 1024.4 1024.5 0.0
19/05:30pm 14.0 11.0 10.6 80 1.8 S 17 30 9 16 1024.4 1024.5 0.0
19/05:00pm 14.9 13.0 11.9 82 1.6 S 13 20 7 11 1024.5 1024.6 0.0
19/04:30pm 14.5 11.7 11.5 82 1.6 S 17 24 9 13 1023.8 1023.9 0.0
19/04:05pm 14.0 10.8 11.3 84 1.4 S 19 28 10 15 1024.3 1024.4 0.0
19/04:00pm 14.0 10.8 11.2 83 1.5 S 19 28 10 15 1024.3 1024.4 0.0
19/03:49pm 14.4 11.7 11.7 84 1.5 S 17 24 9 13 1023.9 1024.0 0.0
19/03:30pm 14.2 11.4 11.4 83 1.5 S 17 24 9 13 1023.8 1023.9 0.0
19/03:00pm 14.2 12.3 11.7 85 1.3 S 13 22 7 12 1023.7 1023.8 0.0
19/02:30pm 14.3 11.9 11.5 83 1.5 S 15 24 8 13 1022.8 1022.9 0.0
19/02:00pm 14.6 12.3 11.6 82 1.6 S 15 22 8 12 1023.1 1023.2 0.0
19/01:54pm 14.9 12.8 12.4 85 1.4 S 15 22 8 12 1022.7 1022.8 0.0
19/01:36pm 14.6 12.7 11.7 83 1.6 S 13 19 7 10 1022.3 1022.4 0.0
19/01:30pm 14.4 12.0 11.4 82 1.6 S 15 17 8 9 1022.1 1022.2 0.0
19/01:00pm 14.0 11.7 11.7 86 1.2 S 15 24 8 13 1022.3 1022.4 0.0
19/12:30pm 14.3 11.8 12.2 87 1.1 S 17 26 9 14 1021.9 1022.0 0.0
19/12:00pm 14.2 11.5 11.7 85 1.3 SSW 17 26 9 14 1022.1 1022.2 0.0
19/11:30am 14.5 12.8 12.5 88 1.1 S 13 22 7 12 1021.6 1021.7 0.0
19/11:00am 14.1 12.0 12.5 90 0.9 SSW 15 20 8 11 1021.5 1021.5 0.0
19/10:30am 13.9 13.0 12.6 92 0.7 S 9 15 5 8 1020.8 1020.8 0.0
19/10:01am 14.2 13.0 12.9 92 0.7 S 11 17 6 9 1020.9 1020.9 0.0
19/10:00am 14.2 13.0 12.9 92 0.7 S 11 17 6 9 1020.8 1020.8 0.0
19/09:30am 14.2 14.2 13.6 96 0.3 E 6 9 3 5 1020.3 1020.3 0.0
19/09:29am 14.1 14.1 13.5 96 0.3 E 6 9 3 5 1020.3 1020.3 0.0
19/09:00am 13.7 13.4 13.2 97 0.3 ENE 7 11 4 6 1019.9 1019.9 0.0
19/08:30am 13.5 13.7 13.2 98 0.2 E 4 9 2 5 1020.0 1020.0 0.0
19/08:00am 13.0 12.5 12.7 98 0.2 E 7 13 4 7 1019.8 1019.8 0.0
19/07:30am 13.0 12.5 12.5 97 0.3 E 7 11 4 6 1019.2 1019.2 0.0
19/07:00am 13.0 12.5 12.5 97 0.3 SSE 7 11 4 6 1019.0 1019.0 0.0
19/06:30am 13.0 12.7 12.7 98 0.2 S 6 11 3 6 1019.3 1019.3 0.0
19/06:00am 13.0 13.1 12.7 98 0.2 SSW 4 9 2 5 1019.0 1019.0 0.0
19/05:30am 12.9 12.0 12.6 98 0.2 SSW 9 17 5 9 1019.2 1019.2 0.0
19/05:00am 13.0 13.4 12.5 97 0.3 W 2 9 1 5 1019.2 1019.2 0.0
19/04:30am 13.2 14.0 12.7 97 0.3 CALM 0 0 0 0 1018.6 1018.6 0.0
19/04:00am 13.3 14.2 12.8 97 0.3 CALM 0 0 0 0 1018.7 1018.7 0.0
19/03:30am 13.5 14.4 12.9 96 0.3 CALM 0 6 0 3 1019.1 1019.1 0.0
19/03:00am 13.6 13.2 13.0 96 0.3 W 7 11 4 6 1019.5 1019.5 0.0
19/02:30am 13.5 13.7 12.9 96 0.3 WNW 4 9 2 5 1019.7 1019.7 0.0
19/02:01am 13.2 12.3 12.6 96 0.3 WNW 9 11 5 6 1020.0 1020.0 0.0
19/02:00am 13.2 12.3 12.6 96 0.3 W 9 15 5 8 1020.0 1020.0 0.0
19/01:32am 13.0 11.2 12.2 95 0.4 W 13 17 7 9 1019.8 1019.8 0.0
19/01:30am 13.1 11.4 12.3 95 0.4 W 13 17 7 9 1019.8 1019.8 0.0
19/01:18am 13.1 11.3 12.2 94 0.5 WNW 13 15 7 8 1019.8 1019.8 0.0
19/01:00am 13.6 12.6 12.3 92 0.7 W 9 11 5 6 1019.8 1019.8 0.0
19/12:46am 13.9 13.0 12.5 91 0.8 WSW 9 15 5 8 1019.9 1019.9 0.0
19/12:30am 14.1 12.4 12.3 89 1.0 W 13 20 7 11 1019.8 1019.8 0.0
19/12:00am 14.6 10.8 12.3 86 1.3 W 24 32 13 17 1019.7 1019.7 0.0
 
Date/Time
EDT
Temp
°C
App
Temp
°C
Dew
Point
Rel
Hum
%
Delta-T
°C
Wind Press
QNH
hPa
Press
MSL
hPa
Rain
since 9 am
mm
Dir
 
Spd
km/h
Gust
km/h
Spd
kts
Gust
kts
18/11:30pm 14.8 11.8 11.8 82 1.6 WNW 19 28 10 15 1019.4 1019.4 0.0
18/11:00pm 15.2 11.1 11.6 79 1.9 W 24 32 13 17 1019.4 1019.4 0.0
18/10:30pm 15.7 10.7 11.1 74 2.5 W 28 35 15 19 1019.5 1019.5 0.0
18/10:00pm 16.8 11.2 10.2 65 3.5 W 30 37 16 20 1019.7 1019.7 0.0
18/09:30pm 17.6 11.7 9.2 58 4.4 W 30 41 16 22 1019.7 1019.7 0.0
18/09:00pm 19.0 12.3 8.1 49 5.6 W 33 56 18 30 1019.1 1019.1 0.0
18/08:56pm 19.2 13.3 7.6 47 5.9 W 28 56 15 30 1019.2 1019.2 0.0
18/08:30pm 19.7 14.8 8.4 48 5.9 W 24 33 13 18 1018.7 1018.7 0.0
18/08:00pm 22.1 16.7 4.6 32 8.6 WNW 22 30 12 16 1018.1 1018.1 0.0
18/07:30pm 22.7 16.5 4.2 30 9.1 WNW 26 35 14 19 1018.1 1018.1 0.0
18/07:00pm 23.1 17.8 5.1 31 9.0 WNW 22 30 12 16 1017.9 1017.9 0.0
18/06:30pm 23.3 17.2 4.8 30 9.2 WNW 26 39 14 21 1017.9 1017.9 0.0
18/06:00pm 23.4 18.0 6.2 33 8.8 WNW 24 39 13 21 1017.9 1017.9 0.0
18/05:30pm 26.2 22.0 7.3 30 10.0 NW 19 32 10 17 1017.9 1017.9 0.0
18/05:00pm 26.6 22.4 7.6 30 10.2 NNW 19 26 10 14 1017.8 1017.8 0.0
18/04:30pm 27.4 21.8 5.6 25 11.3 NNW 24 39 13 21 1018.0 1018.0 0.0
18/04:00pm 26.5 22.7 8.9 33 9.6 N 19 28 10 15 1018.2 1018.2 0.0
18/03:30pm 26.2 20.7 7.7 31 9.9 N 26 37 14 20 1018.1 1018.1 0.0
18/03:00pm 25.7 21.5 9.9 37 8.7 N 22 33 12 18 1018.8 1018.8 0.0
18/02:30pm 25.0 19.2 8.1 34 9.0 N 28 43 15 23 1019.0 1019.0 0.0
18/02:00pm 23.9 19.0 8.3 37 8.3 N 24 35 13 19 1019.2 1019.2 0.0
18/01:30pm 22.9 17.8 7.8 38 7.9 N 24 33 13 18 1019.8 1019.8 0.0
18/01:00pm 22.8 17.6 8.9 41 7.4 N 26 37 14 20 1020.4 1020.4 0.0
18/12:30pm 22.1 17.2 8.6 42 7.2 N 24 33 13 18 1020.9 1020.9 0.0
18/12:00pm 20.8 16.8 9.1 47 6.2 N 20 32 11 17 1021.3 1021.3 0.0
18/11:30am 18.9 14.2 7.7 48 5.7 N 22 37 12 20 1021.7 1021.8 0.0

Other Formats:

Comma delimited format used in spreadsheet applications
http://www.bom.gov.au/fwo/IDV60801/IDV60801.94828.axf

JavaScript Object Notation format (JSON) in row-major order
http://www.bom.gov.au/fwo/IDV60801/IDV60801.94828.json